sensor_id;sensor_type;location;lat;lon;timestamp;temperature;humidity
10572;DHT22;5334;48.928;12.704;2022-11-20T00:00:54;2.70;99.90
10572;DHT22;5334;48.928;12.704;2022-11-20T00:03:20;2.70;99.90
10572;DHT22;5334;48.928;12.704;2022-11-20T00:05:46;2.70;99.90
10572;DHT22;5334;48.928;12.704;2022-11-20T00:08:12;2.60;99.90
10572;DHT22;5334;48.928;12.704;2022-11-20T00:10:38;2.60;99.90
10572;DHT22;5334;48.928;12.704;2022-11-20T00:13:04;2.60;99.90
10572;DHT22;5334;48.928;12.704;2022-11-20T00:15:30;2.60;99.90
10572;DHT22;5334;48.928;12.704;2022-11-20T00:17:56;2.60;99.90
10572;DHT22;5334;48.928;12.704;2022-11-20T00:20:22;2.60;99.90
10572;DHT22;5334;48.928;12.704;2022-11-20T00:22:47;2.60;99.90
10572;DHT22;5334;48.928;12.704;2022-11-20T00:25:13;2.60;99.90
10572;DHT22;5334;48.928;12.704;2022-11-20T00:27:39;2.60;99.90
10572;DHT22;5334;48.928;12.704;2022-11-20T00:30:05;2.60;99.90
10572;DHT22;5334;48.928;12.704;2022-11-20T00:32:31;2.60;99.90
10572;DHT22;5334;48.928;12.704;2022-11-20T00:34:57;2.60;99.90
10572;DHT22;5334;48.928;12.704;2022-11-20T00:37:22;2.60;99.90
10572;DHT22;5334;48.928;12.704;2022-11-20T00:42:15;2.60;99.90
10572;DHT22;5334;48.928;12.704;2022-11-20T00:49:33;2.60;99.90
10572;DHT22;5334;48.928;12.704;2022-11-20T00:51:59;2.60;99.90
10572;DHT22;5334;48.928;12.704;2022-11-20T00:56:53;2.70;99.90
10572;DHT22;5334;48.928;12.704;2022-11-20T00:59:18;2.60;99.90
10572;DHT22;5334;48.928;12.704;2022-11-20T01:01:44;2.70;99.90
10572;DHT22;5334;48.928;12.704;2022-11-20T01:04:10;3.10;99.90
10572;DHT22;5334;48.928;12.704;2022-11-20T01:06:37;2.60;99.90
10572;DHT22;5334;48.928;12.704;2022-11-20T01:09:05;2.60;99.90
10572;DHT22;5334;48.928;12.704;2022-11-20T01:11:34;3.00;99.90
10572;DHT22;5334;48.928;12.704;2022-11-20T01:14:01;3.70;99.90
10572;DHT22;5334;48.928;12.704;2022-11-20T01:16:33;2.60;99.90
10572;DHT22;5334;48.928;12.704;2022-11-20T01:19:00;2.70;99.90
10572;DHT22;5334;48.928;12.704;2022-11-20T01:21:28;2.60;99.90
10572;DHT22;5334;48.928;12.704;2022-11-20T01:23:55;2.60;99.90
10572;DHT22;5334;48.928;12.704;2022-11-20T01:26:23;2.50;99.90
10572;DHT22;5334;48.928;12.704;2022-11-20T01:28:50;2.60;99.90
10572;DHT22;5334;48.928;12.704;2022-11-20T01:33:50;2.70;99.90
10572;DHT22;5334;48.928;12.704;2022-11-20T01:36:18;2.60;99.90
10572;DHT22;5334;48.928;12.704;2022-11-20T01:38:44;2.60;99.90
10572;DHT22;5334;48.928;12.704;2022-11-20T01:41:11;2.40;99.90
10572;DHT22;5334;48.928;12.704;2022-11-20T01:43:58;2.70;99.90
10572;DHT22;5334;48.928;12.704;2022-11-20T01:46:24;2.60;99.90
10572;DHT22;5334;48.928;12.704;2022-11-20T01:49:15;2.60;99.90
10572;DHT22;5334;48.928;12.704;2022-11-20T01:51:45;2.70;99.90
10572;DHT22;5334;48.928;12.704;2022-11-20T01:54:17;2.40;99.90
10572;DHT22;5334;48.928;12.704;2022-11-20T01:56:46;3.90;99.90
10572;DHT22;5334;48.928;12.704;2022-11-20T01:59:15;2.70;99.90
10572;DHT22;5334;48.928;12.704;2022-11-20T02:01:42;2.40;99.90
10572;DHT22;5334;48.928;12.704;2022-11-20T02:04:08;2.80;99.90
10572;DHT22;5334;48.928;12.704;2022-11-20T02:06:40;2.80;99.90
10572;DHT22;5334;48.928;12.704;2022-11-20T02:09:08;2.80;99.90
10572;DHT22;5334;48.928;12.704;2022-11-20T02:11:33;2.80;99.90
10572;DHT22;5334;48.928;12.704;2022-11-20T02:13:59;2.80;99.90
10572;DHT22;5334;48.928;12.704;2022-11-20T02:16:29;2.90;99.90
10572;DHT22;5334;48.928;12.704;2022-11-20T02:18:57;2.20;99.90
10572;DHT22;5334;48.928;12.704;2022-11-20T02:21:33;2.70;99.90
10572;DHT22;5334;48.928;12.704;2022-11-20T02:26:42;2.80;99.90
10572;DHT22;5334;48.928;12.704;2022-11-20T02:29:09;2.80;99.90
10572;DHT22;5334;48.928;12.704;2022-11-20T02:31:40;2.90;99.90
10572;DHT22;5334;48.928;12.704;2022-11-20T02:34:07;3.00;99.90
10572;DHT22;5334;48.928;12.704;2022-11-20T02:36:35;2.80;99.90
10572;DHT22;5334;48.928;12.704;2022-11-20T02:39:03;2.70;99.90
10572;DHT22;5334;48.928;12.704;2022-11-20T02:41:33;2.70;99.90
10572;DHT22;5334;48.928;12.704;2022-11-20T02:44:00;2.70;99.90
10572;DHT22;5334;48.928;12.704;2022-11-20T02:46:25;2.70;99.90
10572;DHT22;5334;48.928;12.704;2022-11-20T02:48:51;2.70;99.90
10572;DHT22;5334;48.928;12.704;2022-11-20T02:51:17;2.70;99.90
10572;DHT22;5334;48.928;12.704;2022-11-20T02:53:42;2.70;99.90
10572;DHT22;5334;48.928;12.704;2022-11-20T02:56:08;2.70;99.90
10572;DHT22;5334;48.928;12.704;2022-11-20T02:58:34;3.00;99.90
10572;DHT22;5334;48.928;12.704;2022-11-20T03:00:59;2.60;99.90
10572;DHT22;5334;48.928;12.704;2022-11-20T03:03:25;2.10;99.90
10572;DHT22;5334;48.928;12.704;2022-11-20T03:05:51;2.60;99.90
10572;DHT22;5334;48.928;12.704;2022-11-20T03:08:16;2.60;99.90
10572;DHT22;5334;48.928;12.704;2022-11-20T03:10:42;2.60;99.90
10572;DHT22;5334;48.928;12.704;2022-11-20T03:13:08;2.70;99.90
10572;DHT22;5334;48.928;12.704;2022-11-20T03:15:36;2.70;99.90
10572;DHT22;5334;48.928;12.704;2022-11-20T03:18:02;3.00;99.90
10572;DHT22;5334;48.928;12.704;2022-11-20T03:20:28;2.70;99.90
10572;DHT22;5334;48.928;12.704;2022-11-20T03:22:54;2.60;99.90
10572;DHT22;5334;48.928;12.704;2022-11-20T03:25:20;2.60;99.90
10572;DHT22;5334;48.928;12.704;2022-11-20T03:27:46;2.60;99.90
10572;DHT22;5334;48.928;12.704;2022-11-20T03:30:12;2.60;99.90
10572;DHT22;5334;48.928;12.704;2022-11-20T03:32:38;2.60;99.90
10572;DHT22;5334;48.928;12.704;2022-11-20T03:35:04;2.50;99.90
10572;DHT22;5334;48.928;12.704;2022-11-20T03:37:30;2.50;99.90
10572;DHT22;5334;48.928;12.704;2022-11-20T03:39:55;2.50;99.90
10572;DHT22;5334;48.928;12.704;2022-11-20T03:42:21;2.00;99.90
10572;DHT22;5334;48.928;12.704;2022-11-20T03:45:05;2.70;99.90
10572;DHT22;5334;48.928;12.704;2022-11-20T03:47:31;2.60;99.90
10572;DHT22;5334;48.928;12.704;2022-11-20T03:49:57;2.60;99.90
10572;DHT22;5334;48.928;12.704;2022-11-20T03:52:22;2.70;99.90
10572;DHT22;5334;48.928;12.704;2022-11-20T03:54:48;2.60;99.90
10572;DHT22;5334;48.928;12.704;2022-11-20T03:57:14;2.60;99.90
10572;DHT22;5334;48.928;12.704;2022-11-20T03:59:39;2.60;99.90
10572;DHT22;5334;48.928;12.704;2022-11-20T04:02:05;2.60;99.90
10572;DHT22;5334;48.928;12.704;2022-11-20T04:04:31;2.50;99.90
10572;DHT22;5334;48.928;12.704;2022-11-20T04:06:56;2.50;99.90
10572;DHT22;5334;48.928;12.704;2022-11-20T04:09:22;2.50;99.90
10572;DHT22;5334;48.928;12.704;2022-11-20T04:11:48;2.20;99.90
10572;DHT22;5334;48.928;12.704;2022-11-20T04:14:15;2.20;99.90
10572;DHT22;5334;48.928;12.704;2022-11-20T04:16:41;2.20;99.90
10572;DHT22;5334;48.928;12.704;2022-11-20T04:19:14;2.10;99.90
10572;DHT22;5334;48.928;12.704;2022-11-20T04:21:41;2.10;99.90
10572;DHT22;5334;48.928;12.704;2022-11-20T04:24:07;2.20;99.90
10572;DHT22;5334;48.928;12.704;2022-11-20T04:26:33;2.30;99.90
10572;DHT22;5334;48.928;12.704;2022-11-20T04:28:59;2.30;99.90
10572;DHT22;5334;48.928;12.704;2022-11-20T04:31:29;2.30;99.90
10572;DHT22;5334;48.928;12.704;2022-11-20T04:33:58;2.30;99.90
10572;DHT22;5334;48.928;12.704;2022-11-20T04:36:25;3.60;99.90
10572;DHT22;5334;48.928;12.704;2022-11-20T04:38:52;2.30;99.90
10572;DHT22;5334;48.928;12.704;2022-11-20T04:41:20;2.30;99.90
10572;DHT22;5334;48.928;12.704;2022-11-20T04:43:47;3.20;99.90
10572;DHT22;5334;48.928;12.704;2022-11-20T04:46:20;2.40;99.90
10572;DHT22;5334;48.928;12.704;2022-11-20T04:48:46;2.30;99.90
10572;DHT22;5334;48.928;12.704;2022-11-20T04:51:12;2.40;99.90
10572;DHT22;5334;48.928;12.704;2022-11-20T04:53:38;2.10;99.90
10572;DHT22;5334;48.928;12.704;2022-11-20T04:56:06;2.30;99.90
10572;DHT22;5334;48.928;12.704;2022-11-20T04:58:33;1.90;99.90
10572;DHT22;5334;48.928;12.704;2022-11-20T05:01:03;2.50;99.90
10572;DHT22;5334;48.928;12.704;2022-11-20T05:03:29;2.50;99.90
10572;DHT22;5334;48.928;12.704;2022-11-20T05:05:55;2.50;99.90
10572;DHT22;5334;48.928;12.704;2022-11-20T05:08:21;2.50;99.90
10572;DHT22;5334;48.928;12.704;2022-11-20T05:10:47;2.60;99.90
10572;DHT22;5334;48.928;12.704;2022-11-20T05:13:13;2.60;99.90
10572;DHT22;5334;48.928;12.704;2022-11-20T05:15:38;2.70;99.90
10572;DHT22;5334;48.928;12.704;2022-11-20T05:18:04;2.70;99.90
10572;DHT22;5334;48.928;12.704;2022-11-20T05:20:30;2.70;99.90
10572;DHT22;5334;48.928;12.704;2022-11-20T05:22:58;2.70;99.90
10572;DHT22;5334;48.928;12.704;2022-11-20T05:25:24;2.60;99.90
10572;DHT22;5334;48.928;12.704;2022-11-20T05:30:16;2.60;99.90
10572;DHT22;5334;48.928;12.704;2022-11-20T05:32:42;2.10;99.90
10572;DHT22;5334;48.928;12.704;2022-11-20T05:35:08;2.50;99.90
10572;DHT22;5334;48.928;12.704;2022-11-20T05:37:34;3.10;99.90
10572;DHT22;5334;48.928;12.704;2022-11-20T05:39:59;2.60;99.90
10572;DHT22;5334;48.928;12.704;2022-11-20T05:42:25;2.50;99.90
10572;DHT22;5334;48.928;12.704;2022-11-20T05:45:00;2.50;99.90
10572;DHT22;5334;48.928;12.704;2022-11-20T05:47:27;2.50;99.90
10572;DHT22;5334;48.928;12.704;2022-11-20T05:49:53;2.50;99.90
10572;DHT22;5334;48.928;12.704;2022-11-20T05:52:20;2.50;99.90
10572;DHT22;5334;48.928;12.704;2022-11-20T05:54:45;2.60;99.90
10572;DHT22;5334;48.928;12.704;2022-11-20T05:57:11;2.60;99.90
10572;DHT22;5334;48.928;12.704;2022-11-20T05:59:37;2.60;99.90
10572;DHT22;5334;48.928;12.704;2022-11-20T06:02:02;2.70;99.90
10572;DHT22;5334;48.928;12.704;2022-11-20T06:04:28;2.70;99.90
10572;DHT22;5334;48.928;12.704;2022-11-20T06:09:20;2.70;99.90
10572;DHT22;5334;48.928;12.704;2022-11-20T06:11:45;2.70;99.90
10572;DHT22;5334;48.928;12.704;2022-11-20T06:14:11;2.60;99.90
10572;DHT22;5334;48.928;12.704;2022-11-20T06:16:37;2.80;99.90
10572;DHT22;5334;48.928;12.704;2022-11-20T06:19:02;2.50;99.90
10572;DHT22;5334;48.928;12.704;2022-11-20T06:23:54;1.50;99.90
10572;DHT22;5334;48.928;12.704;2022-11-20T06:26:22;2.70;99.90
10572;DHT22;5334;48.928;12.704;2022-11-20T06:28:49;2.70;99.90
10572;DHT22;5334;48.928;12.704;2022-11-20T06:31:17;2.60;99.90
10572;DHT22;5334;48.928;12.704;2022-11-20T06:33:43;2.70;99.90
10572;DHT22;5334;48.928;12.704;2022-11-20T06:38:36;2.90;99.90
10572;DHT22;5334;48.928;12.704;2022-11-20T06:41:05;2.70;99.90
10572;DHT22;5334;48.928;12.704;2022-11-20T06:43:31;2.60;99.90
10572;DHT22;5334;48.928;12.704;2022-11-20T06:45:58;3.00;99.90
10572;DHT22;5334;48.928;12.704;2022-11-20T06:48:26;2.60;99.90
10572;DHT22;5334;48.928;12.704;2022-11-20T06:50:52;-0.10;99.90
10572;DHT22;5334;48.928;12.704;2022-11-20T06:53:18;2.70;99.90
10572;DHT22;5334;48.928;12.704;2022-11-20T06:55:45;2.70;99.90
10572;DHT22;5334;48.928;12.704;2022-11-20T07:00:38;2.70;99.90
10572;DHT22;5334;48.928;12.704;2022-11-20T07:03:04;2.80;99.90
10572;DHT22;5334;48.928;12.704;2022-11-20T07:05:30;2.80;99.90
10572;DHT22;5334;48.928;12.704;2022-11-20T07:07:57;3.00;99.90
10572;DHT22;5334;48.928;12.704;2022-11-20T07:10:23;2.80;99.90
10572;DHT22;5334;48.928;12.704;2022-11-20T07:12:52;2.90;99.90
10572;DHT22;5334;48.928;12.704;2022-11-20T07:15:19;2.80;99.90
10572;DHT22;5334;48.928;12.704;2022-11-20T07:17:45;2.90;99.90
10572;DHT22;5334;48.928;12.704;2022-11-20T07:20:12;3.00;99.90
10572;DHT22;5334;48.928;12.704;2022-11-20T07:22:37;3.00;99.90
10572;DHT22;5334;48.928;12.704;2022-11-20T07:25:04;3.00;99.90
10572;DHT22;5334;48.928;12.704;2022-11-20T07:29:56;2.90;99.90
10572;DHT22;5334;48.928;12.704;2022-11-20T07:32:22;3.00;99.90
10572;DHT22;5334;48.928;12.704;2022-11-20T07:34:48;2.90;99.90
10572;DHT22;5334;48.928;12.704;2022-11-20T07:37:14;2.90;99.90
10572;DHT22;5334;48.928;12.704;2022-11-20T07:39:40;2.90;99.90
10572;DHT22;5334;48.928;12.704;2022-11-20T07:42:07;2.90;99.90
10572;DHT22;5334;48.928;12.704;2022-11-20T07:44:32;2.90;99.90
10572;DHT22;5334;48.928;12.704;2022-11-20T07:46:58;2.90;99.90
10572;DHT22;5334;48.928;12.704;2022-11-20T07:49:24;2.80;99.90
10572;DHT22;5334;48.928;12.704;2022-11-20T07:51:51;2.80;99.90
10572;DHT22;5334;48.928;12.704;2022-11-20T07:54:21;2.80;99.90
10572;DHT22;5334;48.928;12.704;2022-11-20T07:56:48;2.90;99.90
10572;DHT22;5334;48.928;12.704;2022-11-20T07:59:15;2.90;99.90
10572;DHT22;5334;48.928;12.704;2022-11-20T08:01:43;3.00;99.90
10572;DHT22;5334;48.928;12.704;2022-11-20T08:04:09;3.00;99.90
10572;DHT22;5334;48.928;12.704;2022-11-20T08:06:36;3.00;99.90
10572;DHT22;5334;48.928;12.704;2022-11-20T08:09:02;3.00;99.90
10572;DHT22;5334;48.928;12.704;2022-11-20T08:11:28;3.10;99.90
10572;DHT22;5334;48.928;12.704;2022-11-20T08:14:13;3.10;99.90
10572;DHT22;5334;48.928;12.704;2022-11-20T08:16:43;3.10;99.90
10572;DHT22;5334;48.928;12.704;2022-11-20T08:19:09;3.10;99.90
10572;DHT22;5334;48.928;12.704;2022-11-20T08:21:35;3.10;99.90
10572;DHT22;5334;48.928;12.704;2022-11-20T08:24:01;3.10;99.90
10572;DHT22;5334;48.928;12.704;2022-11-20T08:26:27;3.10;99.90
10572;DHT22;5334;48.928;12.704;2022-11-20T08:28:54;3.10;99.90
10572;DHT22;5334;48.928;12.704;2022-11-20T08:31:20;3.10;99.90
10572;DHT22;5334;48.928;12.704;2022-11-20T08:33:46;3.20;99.90
10572;DHT22;5334;48.928;12.704;2022-11-20T08:36:12;3.10;99.90
10572;DHT22;5334;48.928;12.704;2022-11-20T08:38:38;3.20;99.90
10572;DHT22;5334;48.928;12.704;2022-11-20T08:41:05;3.20;99.90
10572;DHT22;5334;48.928;12.704;2022-11-20T08:43:53;3.20;99.90
10572;DHT22;5334;48.928;12.704;2022-11-20T08:46:20;3.20;99.90
10572;DHT22;5334;48.928;12.704;2022-11-20T08:48:46;3.20;99.90
10572;DHT22;5334;48.928;12.704;2022-11-20T08:51:12;3.20;99.90
10572;DHT22;5334;48.928;12.704;2022-11-20T08:53:39;3.20;99.90
10572;DHT22;5334;48.928;12.704;2022-11-20T08:56:05;3.20;99.90
10572;DHT22;5334;48.928;12.704;2022-11-20T08:58:30;3.20;99.90
10572;DHT22;5334;48.928;12.704;2022-11-20T09:00:56;3.20;99.90
10572;DHT22;5334;48.928;12.704;2022-11-20T09:03:22;3.20;99.90
10572;DHT22;5334;48.928;12.704;2022-11-20T09:05:48;3.30;99.90
10572;DHT22;5334;48.928;12.704;2022-11-20T09:08:14;3.40;99.90
10572;DHT22;5334;48.928;12.704;2022-11-20T09:10:40;3.50;99.90
10572;DHT22;5334;48.928;12.704;2022-11-20T09:13:06;3.50;99.90
10572;DHT22;5334;48.928;12.704;2022-11-20T09:15:32;3.50;99.90
10572;DHT22;5334;48.928;12.704;2022-11-20T09:18:02;3.50;99.90
10572;DHT22;5334;48.928;12.704;2022-11-20T09:20:30;3.50;99.90
10572;DHT22;5334;48.928;12.704;2022-11-20T09:22:56;3.60;99.90
10572;DHT22;5334;48.928;12.704;2022-11-20T09:25:22;3.70;99.90
10572;DHT22;5334;48.928;12.704;2022-11-20T09:27:54;3.80;99.90
10572;DHT22;5334;48.928;12.704;2022-11-20T09:30:19;3.80;99.90
10572;DHT22;5334;48.928;12.704;2022-11-20T09:32:45;3.70;99.90
10572;DHT22;5334;48.928;12.704;2022-11-20T09:35:11;3.70;99.90
10572;DHT22;5334;48.928;12.704;2022-11-20T09:37:37;3.80;99.90
10572;DHT22;5334;48.928;12.704;2022-11-20T09:40:03;3.80;99.90
10572;DHT22;5334;48.928;12.704;2022-11-20T09:42:45;3.70;99.90
10572;DHT22;5334;48.928;12.704;2022-11-20T09:53:16;3.90;99.90
10572;DHT22;5334;48.928;12.704;2022-11-20T09:55:46;3.90;99.90
10572;DHT22;5334;48.928;12.704;2022-11-20T09:58:41;3.90;99.90
10572;DHT22;5334;48.928;12.704;2022-11-20T10:01:17;3.90;99.90
10572;DHT22;5334;48.928;12.704;2022-11-20T10:06:19;4.00;99.90
10572;DHT22;5334;48.928;12.704;2022-11-20T10:20:40;4.30;99.90
10572;DHT22;5334;48.928;12.704;2022-11-20T10:26:00;4.30;99.90
10572;DHT22;5334;48.928;12.704;2022-11-20T10:31:34;4.40;99.90
10572;DHT22;5334;48.928;12.704;2022-11-20T10:34:06;4.40;99.90
10572;DHT22;5334;48.928;12.704;2022-11-20T10:36:54;4.50;99.90
10572;DHT22;5334;48.928;12.704;2022-11-20T10:42:22;4.50;99.90
10572;DHT22;5334;48.928;12.704;2022-11-20T10:44:58;4.60;99.90
10572;DHT22;5334;48.928;12.704;2022-11-20T10:47:30;4.60;99.90
10572;DHT22;5334;48.928;12.704;2022-11-20T10:50:01;4.60;99.90
10572;DHT22;5334;48.928;12.704;2022-11-20T10:55:38;4.50;99.90
10572;DHT22;5334;48.928;12.704;2022-11-20T11:01:05;4.60;99.90
10572;DHT22;5334;48.928;12.704;2022-11-20T11:03:31;4.50;99.90
10572;DHT22;5334;48.928;12.704;2022-11-20T11:06:17;4.50;99.90
10572;DHT22;5334;48.928;12.704;2022-11-20T11:08:47;4.50;99.90
10572;DHT22;5334;48.928;12.704;2022-11-20T11:11:29;4.50;99.90
10572;DHT22;5334;48.928;12.704;2022-11-20T11:14:09;4.50;99.90
10572;DHT22;5334;48.928;12.704;2022-11-20T11:16:35;4.50;99.90
10572;DHT22;5334;48.928;12.704;2022-11-20T11:19:13;4.50;99.90
10572;DHT22;5334;48.928;12.704;2022-11-20T11:21:46;4.50;99.90
10572;DHT22;5334;48.928;12.704;2022-11-20T11:24:23;4.50;99.90
10572;DHT22;5334;48.928;12.704;2022-11-20T11:26:59;4.60;99.90
10572;DHT22;5334;48.928;12.704;2022-11-20T11:29:29;4.60;99.90
10572;DHT22;5334;48.928;12.704;2022-11-20T11:32:11;4.60;99.90
10572;DHT22;5334;48.928;12.704;2022-11-20T11:34:37;4.60;99.90
10572;DHT22;5334;48.928;12.704;2022-11-20T11:37:04;4.70;99.90
10572;DHT22;5334;48.928;12.704;2022-11-20T11:39:35;4.70;99.90
10572;DHT22;5334;48.928;12.704;2022-11-20T11:42:02;4.80;99.90
10572;DHT22;5334;48.928;12.704;2022-11-20T11:44:36;4.80;99.90
10572;DHT22;5334;48.928;12.704;2022-11-20T11:47:36;4.80;99.90
10572;DHT22;5334;48.928;12.704;2022-11-20T11:58:54;4.80;99.90
10572;DHT22;5334;48.928;12.704;2022-11-20T12:07:20;4.90;99.90
10572;DHT22;5334;48.928;12.704;2022-11-20T12:09:52;4.90;99.90
10572;DHT22;5334;48.928;12.704;2022-11-20T12:12:37;4.90;99.90
10572;DHT22;5334;48.928;12.704;2022-11-20T12:15:06;5.00;99.90
10572;DHT22;5334;48.928;12.704;2022-11-20T12:17:35;5.00;99.90
10572;DHT22;5334;48.928;12.704;2022-11-20T12:20:00;5.00;99.90
10572;DHT22;5334;48.928;12.704;2022-11-20T12:25:24;5.00;99.90
10572;DHT22;5334;48.928;12.704;2022-11-20T12:39:48;4.90;99.90
10572;DHT22;5334;48.928;12.704;2022-11-20T13:07:41;5.10;99.90
10572;DHT22;5334;48.928;12.704;2022-11-20T13:13:19;5.10;99.90
10572;DHT22;5334;48.928;12.704;2022-11-20T13:16:08;5.20;99.90
10572;DHT22;5334;48.928;12.704;2022-11-20T13:18:39;5.20;99.90
10572;DHT22;5334;48.928;12.704;2022-11-20T13:23:41;5.30;99.90
10572;DHT22;5334;48.928;12.704;2022-11-20T13:26:17;5.40;99.90
10572;DHT22;5334;48.928;12.704;2022-11-20T13:28:45;5.40;99.90
10572;DHT22;5334;48.928;12.704;2022-11-20T13:31:30;5.40;99.90
10572;DHT22;5334;48.928;12.704;2022-11-20T13:33:57;5.50;99.90
10572;DHT22;5334;48.928;12.704;2022-11-20T13:36:26;5.50;99.90
10572;DHT22;5334;48.928;12.704;2022-11-20T13:38:54;5.60;99.90
10572;DHT22;5334;48.928;12.704;2022-11-20T13:41:28;5.60;99.90
10572;DHT22;5334;48.928;12.704;2022-11-20T13:44:15;5.70;99.90
10572;DHT22;5334;48.928;12.704;2022-11-20T13:46:48;5.70;99.90
10572;DHT22;5334;48.928;12.704;2022-11-20T13:49:27;5.70;99.90
10572;DHT22;5334;48.928;12.704;2022-11-20T13:52:23;5.70;99.90
10572;DHT22;5334;48.928;12.704;2022-11-20T14:03:35;5.80;99.90
10572;DHT22;5334;48.928;12.704;2022-11-20T14:06:03;5.80;99.90
10572;DHT22;5334;48.928;12.704;2022-11-20T14:08:39;5.90;99.90
10572;DHT22;5334;48.928;12.704;2022-11-20T14:14:03;5.80;99.90
10572;DHT22;5334;48.928;12.704;2022-11-20T14:16:32;5.80;99.90
10572;DHT22;5334;48.928;12.704;2022-11-20T14:21:44;5.80;99.90
10572;DHT22;5334;48.928;12.704;2022-11-20T14:24:12;5.90;99.90
10572;DHT22;5334;48.928;12.704;2022-11-20T14:26:44;5.90;99.90
10572;DHT22;5334;48.928;12.704;2022-11-20T14:29:22;5.90;99.90
10572;DHT22;5334;48.928;12.704;2022-11-20T14:31:54;5.90;99.90
10572;DHT22;5334;48.928;12.704;2022-11-20T14:34:40;5.90;99.90
10572;DHT22;5334;48.928;12.704;2022-11-20T14:37:11;5.90;99.90
10572;DHT22;5334;48.928;12.704;2022-11-20T14:39:46;5.90;99.90
10572;DHT22;5334;48.928;12.704;2022-11-20T14:42:18;5.90;99.90
10572;DHT22;5334;48.928;12.704;2022-11-20T14:44:45;5.80;99.90
10572;DHT22;5334;48.928;12.704;2022-11-20T14:47:13;5.80;99.90
10572;DHT22;5334;48.928;12.704;2022-11-20T14:49:41;5.80;99.90
10572;DHT22;5334;48.928;12.704;2022-11-20T14:52:18;5.80;99.90
10572;DHT22;5334;48.928;12.704;2022-11-20T14:54:48;5.80;99.90
10572;DHT22;5334;48.928;12.704;2022-11-20T14:57:23;5.80;99.90
10572;DHT22;5334;48.928;12.704;2022-11-20T14:59:49;5.90;99.90
10572;DHT22;5334;48.928;12.704;2022-11-20T15:02:16;5.90;99.90
10572;DHT22;5334;48.928;12.704;2022-11-20T15:04:49;5.90;99.90
10572;DHT22;5334;48.928;12.704;2022-11-20T15:07:33;5.90;99.90
10572;DHT22;5334;48.928;12.704;2022-11-20T15:10:08;5.80;99.90
10572;DHT22;5334;48.928;12.704;2022-11-20T15:12:50;5.80;99.90
10572;DHT22;5334;48.928;12.704;2022-11-20T15:15:21;5.80;99.90
10572;DHT22;5334;48.928;12.704;2022-11-20T15:17:48;5.80;99.90
10572;DHT22;5334;48.928;12.704;2022-11-20T15:20:15;5.80;99.90
10572;DHT22;5334;48.928;12.704;2022-11-20T15:22:42;5.80;99.90
10572;DHT22;5334;48.928;12.704;2022-11-20T15:25:15;5.80;99.90
10572;DHT22;5334;48.928;12.704;2022-11-20T15:27:43;5.80;99.90
10572;DHT22;5334;48.928;12.704;2022-11-20T15:30:16;5.70;99.90
10572;DHT22;5334;48.928;12.704;2022-11-20T15:32:43;5.70;99.90
10572;DHT22;5334;48.928;12.704;2022-11-20T15:35:10;5.70;99.90
10572;DHT22;5334;48.928;12.704;2022-11-20T15:37:37;5.70;99.90
10572;DHT22;5334;48.928;12.704;2022-11-20T15:40:04;5.70;99.90
10572;DHT22;5334;48.928;12.704;2022-11-20T15:42:30;5.70;99.90
10572;DHT22;5334;48.928;12.704;2022-11-20T15:44:55;5.60;99.90
10572;DHT22;5334;48.928;12.704;2022-11-20T15:47:25;5.70;99.90
10572;DHT22;5334;48.928;12.704;2022-11-20T15:49:52;5.70;99.90
10572;DHT22;5334;48.928;12.704;2022-11-20T15:52:18;5.70;99.90
10572;DHT22;5334;48.928;12.704;2022-11-20T15:54:44;5.70;99.90
10572;DHT22;5334;48.928;12.704;2022-11-20T15:57:09;5.70;99.90
10572;DHT22;5334;48.928;12.704;2022-11-20T15:59:35;5.70;99.90
10572;DHT22;5334;48.928;12.704;2022-11-20T16:02:14;5.70;99.90
10572;DHT22;5334;48.928;12.704;2022-11-20T16:04:41;5.70;99.90
10572;DHT22;5334;48.928;12.704;2022-11-20T16:07:06;5.70;99.90
10572;DHT22;5334;48.928;12.704;2022-11-20T16:09:32;5.70;99.90
10572;DHT22;5334;48.928;12.704;2022-11-20T16:11:58;5.70;99.90
10572;DHT22;5334;48.928;12.704;2022-11-20T16:14:27;5.70;99.90
10572;DHT22;5334;48.928;12.704;2022-11-20T16:17:11;5.70;99.90
10572;DHT22;5334;48.928;12.704;2022-11-20T16:19:37;5.70;99.90
10572;DHT22;5334;48.928;12.704;2022-11-20T16:22:03;5.60;99.90
10572;DHT22;5334;48.928;12.704;2022-11-20T16:24:29;5.70;99.90
10572;DHT22;5334;48.928;12.704;2022-11-20T16:26:55;5.70;99.90
10572;DHT22;5334;48.928;12.704;2022-11-20T16:29:21;5.70;99.90
10572;DHT22;5334;48.928;12.704;2022-11-20T16:31:47;5.70;99.90
10572;DHT22;5334;48.928;12.704;2022-11-20T16:34:15;5.70;99.90
10572;DHT22;5334;48.928;12.704;2022-11-20T16:36:42;5.70;99.90
10572;DHT22;5334;48.928;12.704;2022-11-20T16:39:10;5.70;99.90
10572;DHT22;5334;48.928;12.704;2022-11-20T16:41:37;5.70;99.90
10572;DHT22;5334;48.928;12.704;2022-11-20T16:44:07;5.70;99.90
10572;DHT22;5334;48.928;12.704;2022-11-20T16:46:34;5.70;99.90
10572;DHT22;5334;48.928;12.704;2022-11-20T16:49:05;5.80;99.90
10572;DHT22;5334;48.928;12.704;2022-11-20T16:51:34;5.80;99.90
10572;DHT22;5334;48.928;12.704;2022-11-20T16:54:08;5.80;99.90
10572;DHT22;5334;48.928;12.704;2022-11-20T16:56:34;5.70;99.90
10572;DHT22;5334;48.928;12.704;2022-11-20T16:59:00;5.70;99.90
10572;DHT22;5334;48.928;12.704;2022-11-20T17:01:28;5.70;99.90
10572;DHT22;5334;48.928;12.704;2022-11-20T17:03:59;5.60;99.90
10572;DHT22;5334;48.928;12.704;2022-11-20T17:06:27;5.60;99.90
10572;DHT22;5334;48.928;12.704;2022-11-20T17:08:54;5.50;99.90
10572;DHT22;5334;48.928;12.704;2022-11-20T17:11:20;5.50;99.90
10572;DHT22;5334;48.928;12.704;2022-11-20T17:13:46;5.50;99.90
10572;DHT22;5334;48.928;12.704;2022-11-20T17:16:14;5.40;99.90
10572;DHT22;5334;48.928;12.704;2022-11-20T17:18:40;5.40;99.90
10572;DHT22;5334;48.928;12.704;2022-11-20T17:21:06;5.30;99.90
10572;DHT22;5334;48.928;12.704;2022-11-20T17:23:38;5.20;99.90
10572;DHT22;5334;48.928;12.704;2022-11-20T17:26:09;5.10;99.90
10572;DHT22;5334;48.928;12.704;2022-11-20T17:28:36;5.00;99.90
10572;DHT22;5334;48.928;12.704;2022-11-20T17:31:05;4.90;99.90
10572;DHT22;5334;48.928;12.704;2022-11-20T17:33:33;4.90;99.90
10572;DHT22;5334;48.928;12.704;2022-11-20T17:36:00;4.80;99.90
10572;DHT22;5334;48.928;12.704;2022-11-20T17:38:26;4.80;99.90
10572;DHT22;5334;48.928;12.704;2022-11-20T17:40:52;4.80;99.90
10572;DHT22;5334;48.928;12.704;2022-11-20T17:43:17;4.80;99.90
10572;DHT22;5334;48.928;12.704;2022-11-20T17:45:43;4.70;99.90
10572;DHT22;5334;48.928;12.704;2022-11-20T17:48:10;4.70;99.90
10572;DHT22;5334;48.928;12.704;2022-11-20T17:50:36;4.70;99.90
10572;DHT22;5334;48.928;12.704;2022-11-20T17:53:01;4.60;99.90
10572;DHT22;5334;48.928;12.704;2022-11-20T17:55:27;4.70;99.90
10572;DHT22;5334;48.928;12.704;2022-11-20T17:58:13;4.60;99.90
10572;DHT22;5334;48.928;12.704;2022-11-20T18:00:38;4.60;99.90
10572;DHT22;5334;48.928;12.704;2022-11-20T18:03:04;4.60;99.90
10572;DHT22;5334;48.928;12.704;2022-11-20T18:05:30;4.60;99.90
10572;DHT22;5334;48.928;12.704;2022-11-20T18:07:55;4.50;99.90
10572;DHT22;5334;48.928;12.704;2022-11-20T18:10:21;4.40;99.90
10572;DHT22;5334;48.928;12.704;2022-11-20T18:12:47;4.40;99.90
10572;DHT22;5334;48.928;12.704;2022-11-20T18:15:12;4.30;99.90